Pagrindinis puslapis
METAR-TAF:

METAR-TAF

Oro uostai :

Vitebskas, Baltarusija

platuma: 55-10N, ilguma: 030-13E, Aukštis: 176 m

Dabartinis oras

Ataskaita buvo paskelbta 10 valandos ir 11 minutes, ne 16:00 UTC
Vėjas 4 kt iš Pietvakarių
Temperatūra 21°C
Drėgmė 46%
Slėgis 1028 hPa
Matomumas 10 km arba daugiau
nėra debesų žemiau 1500 m ir nėra kamuolinių lietaus debesų

METAR: UMII 231600Z 23002MPS CAVOK 21/09 Q1028 R23/D NOSIG

Laikas: 05:11 (02:11 UTC)

Prognozė

Ataskaita buvo paskelbta 12 valandos ir 4 minutes, ne 14:07 UTC
Prognozė galioja nuo 23 metu 15 UTC su 23 metu 24 UTC
Vėjas 4 kt nuo kintamojo kryptimis
Matomumas 10 km arba daugiau
Išsisklaidę debesys ne aukštis 2000 ft
Laikinai
nuo 23 metu 18 UTC su 23 metu 24 UTC
Matomumas: 1000 m
Išsisklaidę debesys ne aukštis 300 ft
rūkana

TAF: UMII 231407Z 2315/2324 VRB02MPS 9999 SCT020 TEMPO 2318/2324 1000 BR SCT003

Orai ataskaitas ir orų prognozės (METAR, TAF).

turimą stotys yra geltonos ir raudonos taškus žemėlapyje.

Perkelti pele per norėdami pamatyti stoties vardą.

Tada spustelėkite, norėdami matyti oro stebėjimo ir prognozės.

Norėdami pakeisti žemėlapį: spustelėkite ant žalios mygtukų su juodo kryžiaus žemyn,; žalią mygtuką su brūkšneliu, jei norite nutolinti; arba žalių rodyklių gretimoms žemėlapius.


METAR-TAF: